RYR8SF EPSC-EGGP
Flight info
| Callsign | RYR8SF |
|---|---|
| Flight time | 1h 52m |
| Altitude | 36000 |
| Route | BINKA L23 HAM M170 ELSOB DCT MIMVA DCT OTBED Y70 POL |
| Aircraft | B738/M-SDE2E3FGHIRWXY/LB1 |
Departure
| Time | 2026-04-16 12:51 |
|---|---|
| Airport | Solidarity Szczecin–Goleniów Airport (EPSC) |
Arrival
| Time | 2026-04-16 14:43 |
|---|---|
| Airport | Liverpool John Lennon Airport (EGGP) |
| Time | Latitude | Longitude | Altitude | Speed | Heading |
|---|---|---|---|---|---|
| 2026-04-16 12:20 | 53.59312 | 14.89268 | 126 ft | 0 kts | 41° |
| 2026-04-16 12:44 | 53.59316 | 14.89280 | 128 ft | 3 kts | 75° |
| 2026-04-16 12:44 | 53.59296 | 14.89286 | 128 ft | 4 kts | 229° |
| 2026-04-16 12:44 | 53.59287 | 14.89232 | 128 ft | 7 kts | 257° |
| 2026-04-16 12:44 | 53.59251 | 14.89158 | 128 ft | 10 kts | 173° |
| 2026-04-16 12:45 | 53.59200 | 14.89236 | 125 ft | 10 kts | 130° |
| 2026-04-16 12:45 | 53.59142 | 14.89349 | 132 ft | 15 kts | 131° |
| 2026-04-16 12:45 | 53.59064 | 14.89500 | 134 ft | 18 kts | 131° |
| 2026-04-16 12:45 | 53.58981 | 14.89660 | 136 ft | 18 kts | 131° |
| 2026-04-16 12:46 | 53.58891 | 14.89835 | 139 ft | 20 kts | 131° |
| 2026-04-16 12:46 | 53.58794 | 14.90022 | 141 ft | 23 kts | 131° |
| 2026-04-16 12:46 | 53.58682 | 14.90240 | 144 ft | 25 kts | 131° |
| 2026-04-16 12:46 | 53.58571 | 14.90453 | 147 ft | 23 kts | 130° |
| 2026-04-16 12:47 | 53.58467 | 14.90654 | 150 ft | 22 kts | 131° |
| 2026-04-16 12:47 | 53.58365 | 14.90853 | 153 ft | 22 kts | 131° |
| 2026-04-16 12:47 | 53.58266 | 14.91043 | 156 ft | 21 kts | 131° |
| 2026-04-16 12:47 | 53.58171 | 14.91228 | 159 ft | 21 kts | 131° |
| 2026-04-16 12:48 | 53.58073 | 14.91419 | 161 ft | 23 kts | 131° |
| 2026-04-16 12:48 | 53.57972 | 14.91614 | 163 ft | 17 kts | 130° |
| 2026-04-16 12:48 | 53.57914 | 14.91728 | 164 ft | 7 kts | 131° |
| 2026-04-16 12:48 | 53.57855 | 14.91775 | 164 ft | 13 kts | 200° |
| 2026-04-16 12:49 | 53.57799 | 14.91705 | 164 ft | 2 kts | 221° |
| 2026-04-16 12:49 | 53.57785 | 14.91682 | 164 ft | 7 kts | 224° |
| 2026-04-16 12:49 | 53.57766 | 14.91598 | 165 ft | 9 kts | 300° |
| 2026-04-16 12:49 | 53.57774 | 14.91578 | 165 ft | 0 kts | 307° |
| 2026-04-16 12:50 | 53.57811 | 14.91504 | 165 ft | 32 kts | 311° |
| 2026-04-16 12:50 | 53.58123 | 14.90899 | 156 ft | 104 kts | 311° |
| 2026-04-16 12:50 | 53.58731 | 14.89720 | 179 ft | 157 kts | 310° |
| 2026-04-16 12:50 | 53.59464 | 14.88267 | 701 ft | 169 kts | 310° |
| 2026-04-16 12:51 | 53.60237 | 14.86739 | 1428 ft | 172 kts | 311° |
| 2026-04-16 12:51 | 53.61054 | 14.85171 | 2017 ft | 185 kts | 311° |
| 2026-04-16 12:51 | 53.61947 | 14.83479 | 2511 ft | 202 kts | 311° |
| 2026-04-16 12:51 | 53.62914 | 14.81616 | 2844 ft | 219 kts | 310° |
| 2026-04-16 12:52 | 53.63933 | 14.79581 | 3211 ft | 233 kts | 309° |
| 2026-04-16 12:52 | 53.64630 | 14.78163 | 3481 ft | 243 kts | 305° |
| 2026-04-16 12:52 | 53.65357 | 14.75516 | 3964 ft | 255 kts | 287° |
| 2026-04-16 12:52 | 53.65912 | 14.72636 | 4685 ft | 261 kts | 289° |
| 2026-04-16 12:53 | 53.66518 | 14.69775 | 5647 ft | 256 kts | 290° |
| 2026-04-16 12:53 | 53.67151 | 14.66974 | 6541 ft | 255 kts | 292° |
| 2026-04-16 12:53 | 53.67790 | 14.64181 | 7350 ft | 256 kts | 292° |
| 2026-04-16 12:53 | 53.68428 | 14.61374 | 8153 ft | 256 kts | 292° |
| 2026-04-16 12:54 | 53.69065 | 14.58554 | 8949 ft | 257 kts | 292° |
| 2026-04-16 12:54 | 53.69700 | 14.55731 | 9724 ft | 259 kts | 292° |
| 2026-04-16 12:54 | 53.70338 | 14.52881 | 10454 ft | 261 kts | 293° |
| 2026-04-16 12:54 | 53.71005 | 14.49902 | 10668 ft | 283 kts | 292° |
| 2026-04-16 12:55 | 53.71724 | 14.46677 | 10849 ft | 304 kts | 292° |
| 2026-04-16 12:55 | 53.72483 | 14.43253 | 11186 ft | 317 kts | 292° |
| 2026-04-16 12:55 | 53.73264 | 14.39722 | 11784 ft | 322 kts | 292° |
| 2026-04-16 12:55 | 53.74049 | 14.36171 | 12494 ft | 325 kts | 292° |
| 2026-04-16 12:56 | 53.74843 | 14.32577 | 13208 ft | 328 kts | 291° |
| 2026-04-16 12:56 | 53.75629 | 14.28990 | 13901 ft | 332 kts | 290° |
| 2026-04-16 12:56 | 53.76053 | 14.25131 | 14514 ft | 339 kts | 274° |
| 2026-04-16 12:56 | 53.76065 | 14.21128 | 15187 ft | 342 kts | 272° |
| 2026-04-16 12:57 | 53.76068 | 14.17091 | 15867 ft | 345 kts | 272° |
| 2026-04-16 12:57 | 53.76076 | 14.12956 | 16513 ft | 350 kts | 272° |
| 2026-04-16 12:57 | 53.76090 | 14.08876 | 17140 ft | 354 kts | 272° |
| 2026-04-16 12:57 | 53.76109 | 14.04699 | 17786 ft | 357 kts | 272° |
| 2026-04-16 12:58 | 53.76131 | 14.00479 | 18420 ft | 361 kts | 272° |
| 2026-04-16 12:58 | 53.76152 | 13.96213 | 18988 ft | 364 kts | 272° |
| 2026-04-16 12:58 | 53.76173 | 13.91924 | 19601 ft | 366 kts | 273° |
| 2026-04-16 12:58 | 53.76193 | 13.87622 | 20203 ft | 367 kts | 273° |
| 2026-04-16 12:59 | 53.76212 | 13.83293 | 20778 ft | 370 kts | 273° |
| 2026-04-16 12:59 | 53.76230 | 13.78932 | 21342 ft | 372 kts | 273° |
| 2026-04-16 12:59 | 53.76244 | 13.74545 | 21890 ft | 375 kts | 273° |
| 2026-04-16 13:00 | 53.76265 | 13.65694 | 22985 ft | 379 kts | 272° |
| 2026-04-16 13:00 | 53.76273 | 13.61216 | 23521 ft | 382 kts | 272° |
| 2026-04-16 13:00 | 53.76279 | 13.56715 | 23992 ft | 384 kts | 272° |
| 2026-04-16 13:00 | 53.76258 | 13.52185 | 24427 ft | 387 kts | 271° |
| 2026-04-16 13:01 | 53.76210 | 13.47628 | 24851 ft | 389 kts | 271° |
| 2026-04-16 13:01 | 53.76157 | 13.43044 | 25284 ft | 391 kts | 271° |
| 2026-04-16 13:01 | 53.76107 | 13.38436 | 25688 ft | 393 kts | 271° |
| 2026-04-16 13:01 | 53.76057 | 13.33809 | 26096 ft | 395 kts | 271° |
| 2026-04-16 13:02 | 53.76006 | 13.29161 | 26498 ft | 397 kts | 271° |
| 2026-04-16 13:02 | 53.75953 | 13.24492 | 26906 ft | 398 kts | 270° |
| 2026-04-16 13:02 | 53.75898 | 13.19809 | 27308 ft | 399 kts | 270° |
| 2026-04-16 13:02 | 53.75840 | 13.15106 | 27660 ft | 402 kts | 270° |
| 2026-04-16 13:03 | 53.75781 | 13.10358 | 27965 ft | 405 kts | 270° |
| 2026-04-16 13:03 | 53.75718 | 13.05585 | 28279 ft | 408 kts | 270° |
| 2026-04-16 13:03 | 53.75654 | 13.00777 | 28647 ft | 410 kts | 270° |
| 2026-04-16 13:03 | 53.75586 | 12.95957 | 29010 ft | 411 kts | 270° |
| 2026-04-16 13:04 | 53.75517 | 12.91118 | 29345 ft | 413 kts | 270° |
| 2026-04-16 13:04 | 53.75447 | 12.86257 | 29722 ft | 414 kts | 270° |
| 2026-04-16 13:04 | 53.75374 | 12.81410 | 30222 ft | 411 kts | 270° |
| 2026-04-16 13:04 | 53.75302 | 12.76596 | 30658 ft | 409 kts | 270° |
| 2026-04-16 13:05 | 53.75238 | 12.71789 | 30965 ft | 410 kts | 270° |
| 2026-04-16 13:05 | 53.75176 | 12.66962 | 31230 ft | 411 kts | 270° |
| 2026-04-16 13:05 | 53.75111 | 12.62131 | 31558 ft | 411 kts | 270° |
| 2026-04-16 13:05 | 53.75044 | 12.57301 | 31887 ft | 411 kts | 270° |
| 2026-04-16 13:06 | 53.74975 | 12.52458 | 32153 ft | 413 kts | 270° |
| 2026-04-16 13:06 | 53.74904 | 12.47607 | 32459 ft | 413 kts | 270° |
| 2026-04-16 13:06 | 53.74818 | 12.42762 | 32797 ft | 413 kts | 269° |
| 2026-04-16 13:06 | 53.74717 | 12.37919 | 33114 ft | 413 kts | 269° |
| 2026-04-16 13:07 | 53.74609 | 12.33076 | 33401 ft | 413 kts | 269° |
| 2026-04-16 13:07 | 53.74500 | 12.28215 | 33698 ft | 413 kts | 269° |
| 2026-04-16 13:07 | 53.74390 | 12.23367 | 34010 ft | 413 kts | 269° |
| 2026-04-16 13:07 | 53.74281 | 12.18525 | 34274 ft | 413 kts | 269° |
| 2026-04-16 13:08 | 53.74171 | 12.13663 | 34498 ft | 414 kts | 269° |
| 2026-04-16 13:08 | 53.74054 | 12.08806 | 34732 ft | 414 kts | 269° |
| 2026-04-16 13:08 | 53.73922 | 12.03947 | 34988 ft | 414 kts | 268° |
| 2026-04-16 13:08 | 53.73752 | 11.99096 | 35216 ft | 414 kts | 267° |
| 2026-04-16 13:09 | 53.73567 | 11.94245 | 35458 ft | 414 kts | 267° |
| 2026-04-16 13:09 | 53.73378 | 11.89397 | 35686 ft | 414 kts | 267° |
| 2026-04-16 13:09 | 53.73188 | 11.84541 | 35888 ft | 415 kts | 267° |
| 2026-04-16 13:09 | 53.72998 | 11.79679 | 36082 ft | 415 kts | 267° |
| 2026-04-16 13:10 | 53.72808 | 11.74795 | 36138 ft | 419 kts | 267° |
| 2026-04-16 13:10 | 53.72425 | 11.64950 | 36141 ft | 420 kts | 267° |
| 2026-04-16 13:11 | 53.72038 | 11.55175 | 36151 ft | 414 kts | 267° |
| 2026-04-16 13:11 | 53.71649 | 11.45517 | 36162 ft | 412 kts | 267° |
| 2026-04-16 13:12 | 53.71253 | 11.35883 | 36152 ft | 411 kts | 267° |
| 2026-04-16 13:12 | 53.70851 | 11.26284 | 36148 ft | 410 kts | 267° |
| 2026-04-16 13:13 | 53.70442 | 11.16699 | 36156 ft | 409 kts | 267° |
| 2026-04-16 13:13 | 53.70024 | 11.07112 | 36155 ft | 410 kts | 267° |
| 2026-04-16 13:14 | 53.69602 | 10.97574 | 36151 ft | 410 kts | 267° |
| 2026-04-16 13:14 | 53.69168 | 10.87969 | 36156 ft | 411 kts | 266° |
| 2026-04-16 13:15 | 53.68723 | 10.78272 | 36162 ft | 412 kts | 266° |
| 2026-04-16 13:15 | 53.68274 | 10.68674 | 36154 ft | 413 kts | 266° |
| 2026-04-16 13:16 | 53.67814 | 10.59014 | 36157 ft | 414 kts | 266° |
| 2026-04-16 13:16 | 53.67346 | 10.49335 | 36158 ft | 414 kts | 266° |
| 2026-04-16 13:17 | 53.66870 | 10.39657 | 36166 ft | 414 kts | 266° |
| 2026-04-16 13:17 | 53.66386 | 10.29990 | 36156 ft | 414 kts | 266° |
| 2026-04-16 13:18 | 53.65895 | 10.20332 | 36157 ft | 413 kts | 266° |
| 2026-04-16 13:18 | 53.65397 | 10.10695 | 36157 ft | 412 kts | 266° |
| 2026-04-16 13:19 | 53.64892 | 10.01076 | 36156 ft | 412 kts | 266° |
| 2026-04-16 13:19 | 53.64380 | 9.91467 | 36155 ft | 411 kts | 266° |
| 2026-04-16 13:20 | 53.63862 | 9.81883 | 36160 ft | 410 kts | 266° |
| 2026-04-16 13:20 | 53.63336 | 9.72309 | 36182 ft | 410 kts | 266° |
| 2026-04-16 13:21 | 53.62803 | 9.62748 | 36180 ft | 410 kts | 266° |
| 2026-04-16 13:21 | 53.62264 | 9.53203 | 36180 ft | 409 kts | 266° |
| 2026-04-16 13:22 | 53.61716 | 9.43654 | 36165 ft | 409 kts | 266° |
| 2026-04-16 13:22 | 53.61162 | 9.34128 | 36179 ft | 408 kts | 265° |
| 2026-04-16 13:23 | 53.60601 | 9.24614 | 36171 ft | 408 kts | 265° |
| 2026-04-16 13:23 | 53.60032 | 9.15101 | 36179 ft | 408 kts | 265° |
| 2026-04-16 13:24 | 53.59457 | 9.05600 | 36180 ft | 408 kts | 265° |
| 2026-04-16 13:24 | 53.58878 | 8.96167 | 36181 ft | 407 kts | 265° |
| 2026-04-16 13:25 | 53.58288 | 8.86685 | 36185 ft | 407 kts | 265° |
| 2026-04-16 13:25 | 53.57687 | 8.77146 | 36188 ft | 407 kts | 265° |
| 2026-04-16 13:26 | 53.57083 | 8.67686 | 36185 ft | 407 kts | 265° |
| 2026-04-16 13:26 | 53.56476 | 8.58291 | 36185 ft | 406 kts | 265° |
| 2026-04-16 13:27 | 53.55858 | 8.48834 | 36182 ft | 406 kts | 265° |
| 2026-04-16 13:27 | 53.55232 | 8.39393 | 36180 ft | 406 kts | 265° |
| 2026-04-16 13:28 | 53.54600 | 8.29957 | 36175 ft | 406 kts | 265° |
| 2026-04-16 13:28 | 53.53960 | 8.20529 | 36176 ft | 406 kts | 265° |
| 2026-04-16 13:29 | 53.53314 | 8.11117 | 36177 ft | 405 kts | 265° |
| 2026-04-16 13:29 | 53.52660 | 8.01702 | 36179 ft | 405 kts | 264° |
| 2026-04-16 13:30 | 53.52000 | 7.92302 | 36178 ft | 405 kts | 264° |
| 2026-04-16 13:30 | 53.51333 | 7.82922 | 36185 ft | 404 kts | 264° |
| 2026-04-16 13:31 | 53.50659 | 7.73541 | 36191 ft | 404 kts | 264° |
| 2026-04-16 13:31 | 53.49978 | 7.64180 | 36184 ft | 404 kts | 264° |
| 2026-04-16 13:32 | 53.49291 | 7.54836 | 36175 ft | 403 kts | 264° |
| 2026-04-16 13:32 | 53.48599 | 7.45512 | 36167 ft | 402 kts | 264° |
| 2026-04-16 13:33 | 53.47900 | 7.36207 | 36178 ft | 401 kts | 264° |
| 2026-04-16 13:33 | 53.47195 | 7.26914 | 36177 ft | 401 kts | 264° |
| 2026-04-16 13:34 | 53.46484 | 7.17642 | 36181 ft | 400 kts | 264° |
| 2026-04-16 13:34 | 53.45767 | 7.08384 | 36177 ft | 400 kts | 264° |
| 2026-04-16 13:35 | 53.45042 | 6.99135 | 36178 ft | 399 kts | 264° |
| 2026-04-16 13:35 | 53.44313 | 6.89905 | 36183 ft | 399 kts | 264° |
| 2026-04-16 13:36 | 53.43701 | 6.82240 | 36193 ft | 399 kts | 264° |
| 2026-04-16 13:36 | 53.42959 | 6.73030 | 36195 ft | 399 kts | 264° |
| 2026-04-16 13:37 | 53.42210 | 6.63817 | 36192 ft | 398 kts | 264° |
| 2026-04-16 13:37 | 53.41454 | 6.54621 | 36188 ft | 398 kts | 264° |
| 2026-04-16 13:38 | 53.40691 | 6.45421 | 36190 ft | 398 kts | 264° |
| 2026-04-16 13:38 | 53.39921 | 6.36224 | 36184 ft | 399 kts | 264° |
| 2026-04-16 13:39 | 53.39144 | 6.27028 | 36185 ft | 398 kts | 264° |
| 2026-04-16 13:39 | 53.38360 | 6.17848 | 36196 ft | 398 kts | 264° |
| 2026-04-16 13:40 | 53.37576 | 6.08747 | 36195 ft | 397 kts | 263° |
| 2026-04-16 13:40 | 53.36781 | 5.99593 | 36206 ft | 397 kts | 263° |
| 2026-04-16 13:41 | 53.35979 | 5.90460 | 36204 ft | 396 kts | 263° |
| 2026-04-16 13:41 | 53.35171 | 5.81326 | 36206 ft | 396 kts | 263° |
| 2026-04-16 13:42 | 53.34358 | 5.72219 | 36207 ft | 395 kts | 263° |
| 2026-04-16 13:42 | 53.33539 | 5.63130 | 36210 ft | 395 kts | 263° |
| 2026-04-16 13:43 | 53.32714 | 5.54058 | 36194 ft | 394 kts | 263° |
| 2026-04-16 13:43 | 53.31890 | 5.45069 | 36191 ft | 393 kts | 263° |
| 2026-04-16 13:44 | 53.31053 | 5.36023 | 36190 ft | 393 kts | 263° |
| 2026-04-16 13:44 | 53.30211 | 5.26998 | 36185 ft | 393 kts | 263° |
| 2026-04-16 13:45 | 53.29363 | 5.17983 | 36183 ft | 392 kts | 263° |
| 2026-04-16 13:45 | 53.28509 | 5.08975 | 36195 ft | 392 kts | 263° |
| 2026-04-16 13:46 | 53.27648 | 4.99974 | 36182 ft | 392 kts | 263° |
| 2026-04-16 13:46 | 53.26780 | 4.90975 | 36184 ft | 392 kts | 263° |
| 2026-04-16 13:47 | 53.25907 | 4.81990 | 36184 ft | 392 kts | 263° |
| 2026-04-16 13:47 | 53.25026 | 4.73005 | 36187 ft | 392 kts | 263° |
| 2026-04-16 13:48 | 53.24140 | 4.64036 | 36211 ft | 392 kts | 262° |
| 2026-04-16 13:48 | 53.23247 | 4.55075 | 36211 ft | 391 kts | 262° |
| 2026-04-16 13:49 | 53.22348 | 4.46116 | 36202 ft | 391 kts | 262° |
| 2026-04-16 13:49 | 53.21442 | 4.37168 | 36201 ft | 391 kts | 262° |
| 2026-04-16 13:50 | 53.20529 | 4.28211 | 36199 ft | 391 kts | 262° |
| 2026-04-16 13:50 | 53.19610 | 4.19274 | 36200 ft | 391 kts | 262° |
| 2026-04-16 13:51 | 53.18684 | 4.10330 | 36200 ft | 391 kts | 262° |
| 2026-04-16 13:51 | 53.17753 | 4.01403 | 36188 ft | 390 kts | 262° |
| 2026-04-16 13:52 | 53.16817 | 3.92510 | 36189 ft | 389 kts | 262° |
| 2026-04-16 13:52 | 53.15885 | 3.83706 | 36187 ft | 388 kts | 262° |
| 2026-04-16 13:53 | 53.14943 | 3.74874 | 36182 ft | 386 kts | 262° |
| 2026-04-16 13:53 | 53.13997 | 3.66076 | 36182 ft | 385 kts | 262° |
| 2026-04-16 13:54 | 53.13048 | 3.57305 | 36185 ft | 384 kts | 262° |
| 2026-04-16 13:54 | 53.12094 | 3.48558 | 36183 ft | 383 kts | 262° |
| 2026-04-16 13:55 | 53.11138 | 3.39835 | 36171 ft | 383 kts | 262° |
| 2026-04-16 13:55 | 53.10308 | 3.31109 | 36166 ft | 381 kts | 268° |
| 2026-04-16 13:56 | 53.10598 | 3.22356 | 36172 ft | 379 kts | 276° |
| 2026-04-16 13:56 | 53.11233 | 3.13642 | 36162 ft | 379 kts | 276° |
| 2026-04-16 13:57 | 53.11857 | 3.04918 | 36170 ft | 380 kts | 276° |
| 2026-04-16 13:57 | 53.12463 | 2.96184 | 36164 ft | 380 kts | 276° |
| 2026-04-16 13:58 | 53.13355 | 2.83048 | 36159 ft | 381 kts | 276° |
| 2026-04-16 13:58 | 53.13940 | 2.74274 | 36157 ft | 381 kts | 276° |
| 2026-04-16 13:59 | 53.14520 | 2.65487 | 36160 ft | 382 kts | 276° |
| 2026-04-16 13:59 | 53.15094 | 2.56685 | 36154 ft | 382 kts | 276° |
| 2026-04-16 14:00 | 53.15662 | 2.47883 | 36162 ft | 382 kts | 275° |
| 2026-04-16 14:00 | 53.16219 | 2.39141 | 36156 ft | 382 kts | 275° |
| 2026-04-16 14:01 | 53.16773 | 2.30347 | 36149 ft | 381 kts | 275° |
| 2026-04-16 14:01 | 53.17320 | 2.21557 | 36150 ft | 381 kts | 275° |
| 2026-04-16 14:02 | 53.17859 | 2.12785 | 36150 ft | 380 kts | 275° |
| 2026-04-16 14:02 | 53.18391 | 2.04031 | 36145 ft | 379 kts | 275° |
| 2026-04-16 14:03 | 53.18915 | 1.95293 | 36150 ft | 379 kts | 275° |
| 2026-04-16 14:03 | 53.19432 | 1.86557 | 36151 ft | 378 kts | 275° |
| 2026-04-16 14:04 | 53.19942 | 1.77837 | 36139 ft | 377 kts | 275° |
| 2026-04-16 14:04 | 53.20445 | 1.69129 | 36139 ft | 377 kts | 275° |
| 2026-04-16 14:05 | 53.20941 | 1.60423 | 36143 ft | 377 kts | 274° |
| 2026-04-16 14:05 | 53.21431 | 1.51713 | 36159 ft | 377 kts | 274° |
| 2026-04-16 14:06 | 53.21915 | 1.42997 | 36137 ft | 377 kts | 274° |
| 2026-04-16 14:06 | 53.22393 | 1.34281 | 36137 ft | 377 kts | 274° |
| 2026-04-16 14:07 | 53.22863 | 1.25568 | 36135 ft | 377 kts | 274° |
| 2026-04-16 14:07 | 53.23328 | 1.16851 | 36133 ft | 377 kts | 274° |
| 2026-04-16 14:08 | 53.23786 | 1.08140 | 36132 ft | 377 kts | 274° |
| 2026-04-16 14:08 | 53.24235 | 0.99480 | 36132 ft | 377 kts | 274° |
| 2026-04-16 14:09 | 53.24680 | 0.90763 | 36119 ft | 377 kts | 274° |
| 2026-04-16 14:09 | 53.25119 | 0.82048 | 36136 ft | 377 kts | 273° |
| 2026-04-16 14:10 | 53.25551 | 0.73325 | 36113 ft | 377 kts | 273° |
| 2026-04-16 14:10 | 53.25976 | 0.64630 | 36093 ft | 369 kts | 273° |
| 2026-04-16 14:11 | 53.26182 | 0.60400 | 35987 ft | 361 kts | 273° |
| 2026-04-16 14:11 | 53.26381 | 0.56261 | 35753 ft | 353 kts | 273° |
| 2026-04-16 14:11 | 53.26574 | 0.52198 | 35388 ft | 348 kts | 273° |
| 2026-04-16 14:11 | 53.26763 | 0.48197 | 35057 ft | 344 kts | 272° |
| 2026-04-16 14:12 | 53.26950 | 0.44223 | 34704 ft | 341 kts | 272° |
| 2026-04-16 14:12 | 53.27132 | 0.40299 | 34345 ft | 337 kts | 272° |
| 2026-04-16 14:12 | 53.27312 | 0.36413 | 33983 ft | 334 kts | 272° |
| 2026-04-16 14:12 | 53.27489 | 0.32556 | 33585 ft | 331 kts | 272° |
| 2026-04-16 14:13 | 53.27663 | 0.28744 | 33224 ft | 327 kts | 272° |
| 2026-04-16 14:13 | 53.27834 | 0.24980 | 32885 ft | 323 kts | 272° |
| 2026-04-16 14:13 | 53.28001 | 0.21257 | 32518 ft | 320 kts | 272° |
| 2026-04-16 14:13 | 53.28167 | 0.17567 | 32181 ft | 317 kts | 272° |
| 2026-04-16 14:14 | 53.28329 | 0.13921 | 31826 ft | 313 kts | 272° |
| 2026-04-16 14:14 | 53.28489 | 0.10291 | 31500 ft | 314 kts | 272° |
| 2026-04-16 14:14 | 53.28667 | 0.06616 | 31170 ft | 322 kts | 276° |
| 2026-04-16 14:14 | 53.29132 | 0.02927 | 30815 ft | 325 kts | 282° |
| 2026-04-16 14:15 | 53.29892 | -0.00658 | 30357 ft | 330 kts | 290° |
| 2026-04-16 14:15 | 53.30873 | -0.04064 | 29968 ft | 329 kts | 291° |
| 2026-04-16 14:15 | 53.31900 | -0.07524 | 29589 ft | 326 kts | 291° |
| 2026-04-16 14:15 | 53.32905 | -0.10906 | 29220 ft | 322 kts | 291° |
| 2026-04-16 14:16 | 53.33892 | -0.14250 | 28867 ft | 319 kts | 291° |
| 2026-04-16 14:16 | 53.34868 | -0.17573 | 28535 ft | 317 kts | 291° |
| 2026-04-16 14:16 | 53.35832 | -0.20878 | 28177 ft | 315 kts | 291° |
| 2026-04-16 14:16 | 53.36796 | -0.24193 | 27845 ft | 319 kts | 291° |
| 2026-04-16 14:17 | 53.37771 | -0.27549 | 27494 ft | 321 kts | 291° |
| 2026-04-16 14:17 | 53.38744 | -0.30904 | 27132 ft | 319 kts | 291° |
| 2026-04-16 14:17 | 53.39710 | -0.34236 | 26788 ft | 316 kts | 291° |
| 2026-04-16 14:17 | 53.40666 | -0.37540 | 26403 ft | 315 kts | 291° |
| 2026-04-16 14:18 | 53.41613 | -0.40818 | 25952 ft | 316 kts | 291° |
| 2026-04-16 14:18 | 53.42572 | -0.44142 | 25546 ft | 316 kts | 291° |
| 2026-04-16 14:18 | 53.43540 | -0.47495 | 25184 ft | 315 kts | 291° |
| 2026-04-16 14:18 | 53.44479 | -0.50752 | 24841 ft | 313 kts | 291° |
| 2026-04-16 14:19 | 53.45424 | -0.54036 | 24482 ft | 312 kts | 291° |
| 2026-04-16 14:19 | 53.46364 | -0.57310 | 24126 ft | 311 kts | 291° |
| 2026-04-16 14:19 | 53.47300 | -0.60580 | 23775 ft | 311 kts | 291° |
| 2026-04-16 14:19 | 53.48231 | -0.63847 | 23389 ft | 309 kts | 291° |
| 2026-04-16 14:20 | 53.49156 | -0.67095 | 23019 ft | 308 kts | 291° |
| 2026-04-16 14:20 | 53.50076 | -0.70326 | 22661 ft | 306 kts | 291° |
| 2026-04-16 14:20 | 53.50990 | -0.73540 | 22299 ft | 304 kts | 291° |
| 2026-04-16 14:20 | 53.51899 | -0.76746 | 21833 ft | 306 kts | 291° |
| 2026-04-16 14:21 | 53.52813 | -0.79972 | 21444 ft | 305 kts | 291° |
| 2026-04-16 14:21 | 53.53725 | -0.83192 | 21045 ft | 305 kts | 291° |
| 2026-04-16 14:21 | 53.54633 | -0.86400 | 20707 ft | 303 kts | 291° |
| 2026-04-16 14:21 | 53.55534 | -0.89587 | 20382 ft | 300 kts | 291° |
| 2026-04-16 14:22 | 53.56426 | -0.92748 | 20076 ft | 298 kts | 291° |
| 2026-04-16 14:22 | 53.57312 | -0.95892 | 19767 ft | 296 kts | 291° |
| 2026-04-16 14:22 | 53.58191 | -0.99011 | 19471 ft | 294 kts | 291° |
| 2026-04-16 14:22 | 53.59063 | -1.02113 | 19168 ft | 292 kts | 291° |
| 2026-04-16 14:23 | 53.59929 | -1.05199 | 18863 ft | 291 kts | 291° |
| 2026-04-16 14:23 | 53.60769 | -1.08284 | 18563 ft | 288 kts | 287° |
| 2026-04-16 14:23 | 53.61315 | -1.11501 | 18211 ft | 285 kts | 279° |
| 2026-04-16 14:23 | 53.61599 | -1.13651 | 17988 ft | 284 kts | 279° |
| 2026-04-16 14:24 | 53.62018 | -1.16888 | 17663 ft | 282 kts | 279° |
| 2026-04-16 14:24 | 53.62440 | -1.20107 | 17378 ft | 280 kts | 279° |
| 2026-04-16 14:24 | 53.62864 | -1.23292 | 17071 ft | 278 kts | 279° |
| 2026-04-16 14:24 | 53.63292 | -1.26469 | 16780 ft | 279 kts | 279° |
| 2026-04-16 14:25 | 53.63725 | -1.29668 | 16484 ft | 281 kts | 279° |
| 2026-04-16 14:25 | 53.64160 | -1.32877 | 16189 ft | 280 kts | 279° |
| 2026-04-16 14:25 | 53.64592 | -1.36068 | 15896 ft | 278 kts | 279° |
| 2026-04-16 14:25 | 53.65021 | -1.39248 | 15544 ft | 278 kts | 279° |
| 2026-04-16 14:26 | 53.65449 | -1.42423 | 15245 ft | 277 kts | 279° |
| 2026-04-16 14:26 | 53.65873 | -1.45580 | 14950 ft | 276 kts | 279° |
| 2026-04-16 14:26 | 53.66295 | -1.48727 | 14657 ft | 274 kts | 279° |
| 2026-04-16 14:26 | 53.66714 | -1.51856 | 14371 ft | 273 kts | 279° |
| 2026-04-16 14:27 | 53.67131 | -1.54973 | 14077 ft | 272 kts | 279° |
| 2026-04-16 14:27 | 53.67546 | -1.58085 | 13797 ft | 273 kts | 279° |
| 2026-04-16 14:27 | 53.67962 | -1.61218 | 13479 ft | 275 kts | 279° |
| 2026-04-16 14:27 | 53.68379 | -1.64367 | 13166 ft | 274 kts | 279° |
| 2026-04-16 14:28 | 53.68795 | -1.67502 | 12872 ft | 273 kts | 279° |
| 2026-04-16 14:28 | 53.69208 | -1.70624 | 12577 ft | 272 kts | 279° |
| 2026-04-16 14:28 | 53.69617 | -1.73728 | 12291 ft | 271 kts | 279° |
| 2026-04-16 14:28 | 53.70024 | -1.76819 | 12011 ft | 269 kts | 279° |
| 2026-04-16 14:29 | 53.70429 | -1.79901 | 11717 ft | 269 kts | 279° |
| 2026-04-16 14:29 | 53.70832 | -1.82978 | 11433 ft | 267 kts | 279° |
| 2026-04-16 14:29 | 53.71232 | -1.86035 | 11149 ft | 266 kts | 279° |
| 2026-04-16 14:29 | 53.71630 | -1.89086 | 10857 ft | 265 kts | 279° |
| 2026-04-16 14:30 | 53.72024 | -1.92117 | 10581 ft | 264 kts | 279° |
| 2026-04-16 14:30 | 53.72418 | -1.95137 | 10319 ft | 263 kts | 279° |
| 2026-04-16 14:30 | 53.72801 | -1.98081 | 10173 ft | 256 kts | 279° |
| 2026-04-16 14:30 | 53.73177 | -2.00990 | 9969 ft | 252 kts | 278° |
| 2026-04-16 14:31 | 53.73550 | -2.03884 | 9704 ft | 251 kts | 279° |
| 2026-04-16 14:31 | 53.73908 | -2.06766 | 9409 ft | 249 kts | 275° |
| 2026-04-16 14:31 | 53.73742 | -2.09594 | 9184 ft | 241 kts | 248° |
| 2026-04-16 14:31 | 53.72922 | -2.12054 | 8915 ft | 244 kts | 230° |
| 2026-04-16 14:32 | 53.71657 | -2.13994 | 8620 ft | 246 kts | 219° |
| 2026-04-16 14:32 | 53.70310 | -2.15752 | 8348 ft | 244 kts | 219° |
| 2026-04-16 14:32 | 53.68963 | -2.17478 | 8108 ft | 244 kts | 219° |
| 2026-04-16 14:32 | 53.67602 | -2.19222 | 7836 ft | 247 kts | 218° |
| 2026-04-16 14:33 | 53.66240 | -2.20973 | 7564 ft | 246 kts | 219° |
| 2026-04-16 14:33 | 53.64886 | -2.22716 | 7321 ft | 244 kts | 219° |
| 2026-04-16 14:33 | 53.63534 | -2.24452 | 7067 ft | 243 kts | 218° |
| 2026-04-16 14:33 | 53.62193 | -2.26184 | 6809 ft | 243 kts | 218° |
| 2026-04-16 14:34 | 53.60854 | -2.27916 | 6555 ft | 242 kts | 218° |
| 2026-04-16 14:34 | 53.59520 | -2.29644 | 6282 ft | 242 kts | 218° |
| 2026-04-16 14:34 | 53.58190 | -2.31367 | 6025 ft | 241 kts | 218° |
| 2026-04-16 14:34 | 53.56874 | -2.33071 | 5789 ft | 237 kts | 219° |
| 2026-04-16 14:35 | 53.55575 | -2.34752 | 5532 ft | 235 kts | 218° |
| 2026-04-16 14:35 | 53.54285 | -2.36415 | 5325 ft | 232 kts | 218° |
| 2026-04-16 14:35 | 53.53003 | -2.38073 | 5025 ft | 234 kts | 218° |
| 2026-04-16 14:35 | 53.51716 | -2.39735 | 4759 ft | 234 kts | 218° |
| 2026-04-16 14:36 | 53.50423 | -2.41401 | 4483 ft | 234 kts | 218° |
| 2026-04-16 14:36 | 53.49135 | -2.43059 | 4230 ft | 233 kts | 218° |
| 2026-04-16 14:36 | 53.47866 | -2.44690 | 4125 ft | 226 kts | 218° |
| 2026-04-16 14:36 | 53.46638 | -2.46267 | 4028 ft | 219 kts | 218° |
| 2026-04-16 14:37 | 53.45448 | -2.47796 | 3921 ft | 212 kts | 219° |
| 2026-04-16 14:37 | 53.44299 | -2.49270 | 3845 ft | 204 kts | 218° |
| 2026-04-16 14:37 | 53.43205 | -2.50671 | 3782 ft | 191 kts | 218° |
| 2026-04-16 14:37 | 53.42168 | -2.51999 | 3588 ft | 186 kts | 219° |
| 2026-04-16 14:38 | 53.41142 | -2.53309 | 3376 ft | 184 kts | 219° |
| 2026-04-16 14:38 | 53.40127 | -2.54607 | 3164 ft | 182 kts | 219° |
| 2026-04-16 14:38 | 53.39123 | -2.55892 | 2953 ft | 181 kts | 219° |
| 2026-04-16 14:38 | 53.38123 | -2.57172 | 2750 ft | 180 kts | 219° |
| 2026-04-16 14:39 | 53.37157 | -2.58407 | 2527 ft | 173 kts | 218° |
| 2026-04-16 14:39 | 53.36224 | -2.59596 | 2344 ft | 165 kts | 218° |
| 2026-04-16 14:39 | 53.35317 | -2.60752 | 2168 ft | 162 kts | 218° |
| 2026-04-16 14:39 | 53.34581 | -2.62143 | 2005 ft | 169 kts | 252° |
| 2026-04-16 14:40 | 53.34420 | -2.64096 | 2022 ft | 172 kts | 258° |
| 2026-04-16 14:40 | 53.34264 | -2.66034 | 1976 ft | 163 kts | 262° |
| 2026-04-16 14:40 | 53.34175 | -2.67845 | 1854 ft | 148 kts | 261° |
| 2026-04-16 14:40 | 53.34088 | -2.69492 | 1655 ft | 141 kts | 263° |
| 2026-04-16 14:41 | 53.34021 | -2.71057 | 1574 ft | 131 kts | 264° |
| 2026-04-16 14:41 | 53.33949 | -2.72607 | 1360 ft | 139 kts | 264° |
| 2026-04-16 14:41 | 53.33868 | -2.74242 | 1188 ft | 140 kts | 261° |
| 2026-04-16 14:41 | 53.33788 | -2.75849 | 991 ft | 136 kts | 262° |
| 2026-04-16 14:42 | 53.33713 | -2.77415 | 797 ft | 133 kts | 262° |
| 2026-04-16 14:42 | 53.33643 | -2.78930 | 624 ft | 129 kts | 263° |
| 2026-04-16 14:42 | 53.33573 | -2.80420 | 480 ft | 131 kts | 262° |
| 2026-04-16 14:42 | 53.33506 | -2.81972 | 286 ft | 135 kts | 264° |
| 2026-04-16 14:43 | 53.33436 | -2.83502 | 99 ft | 130 kts | 265° |
| 2026-04-16 14:43 | 53.33370 | -2.84828 | 74 ft | 89 kts | 265° |
| 2026-04-16 14:43 | 53.33339 | -2.85492 | 80 ft | 28 kts | 266° |
| 2026-04-16 14:43 | 53.33324 | -2.85823 | 73 ft | 28 kts | 265° |
| 2026-04-16 14:44 | 53.33309 | -2.86133 | 68 ft | 26 kts | 267° |
| 2026-04-16 14:44 | 53.33344 | -2.86403 | 68 ft | 24 kts | 324° |
| 2026-04-16 14:44 | 53.33434 | -2.86432 | 81 ft | 2 kts | 3° |
| 2026-04-16 14:44 | 53.33446 | -2.86423 | 82 ft | 4 kts | 33° |
| 2026-04-16 14:45 | 53.33466 | -2.86343 | 83 ft | 10 kts | 84° |
| 2026-04-16 14:45 | 53.33472 | -2.86220 | 83 ft | 11 kts | 85° |
| 2026-04-16 14:45 | 53.33477 | -2.86097 | 83 ft | 10 kts | 86° |
| 2026-04-16 14:45 | 53.33483 | -2.85979 | 88 ft | 10 kts | 82° |
| 2026-04-16 14:46 | 53.33539 | -2.85937 | 87 ft | 10 kts | 357° |
| 2026-04-16 14:46 | 53.33602 | -2.85950 | 84 ft | 6 kts | 353° |
| 2026-04-16 14:46 | 53.33634 | -2.85954 | 84 ft | 2 kts | 355° |
| 2026-04-16 14:46 | 53.33640 | -2.85955 | 84 ft | 0 kts | 355° |
| 2026-04-16 14:47 | 53.33641 | -2.85955 | 84 ft | 0 kts | 355° |